Berry, Illinois
Current Conditions -  °F | °C
As of 10:52 PM on Saturday 20 Dec 2014 (Local Time) from KSPI Reporting Station
Overcast Overcast  
Wind Chill: 30°   Ceiling: 3200
Heat Index: 37°   Visibility: 10mi
Dew Point: 31°   Wind: 10mph
Humidity: 79%   Direction: 170°S
Pressure: 30.24"   Gusts: NA
Location:  39.7312°N, 89.5322°W
Report Text: KSPI 210452Z AUTO 17009KT 10SM OVC032 03/M01 A3024 RMK AO2 SLP246 T00281006
Loading
Personal Weather Stations






























Interactive Weather Map New forecast layout! Learn more

10-Day Weather Forecast

Advertisements
Track Severe Weather on mobile